Retrouvez également nos données météorologiques sur:

UK Metoffice

Weather Underground

AWEKAS

Citizen Weather Observer Program (CWOP)



Rapports METAR à proximité

   
LFOJ - Montargis
Mise à jour: 02-03-2021 02:00
Partiellement nuageux  
Partiellement nuageux  
   Vent: NE 9.3 km/h
Vent: NE 9.3 km/h
Température: 3°C
éolien: 1°C
Point de rosée: 1°C
Humidité: 87%
Pression atmosphérique: 1026 hPa
Nuages: Partiellement nuageux
Visibilité: 6 km
Nébulosité: Partiellement nuageux
LFOJ 020100Z AUTO 05005KT 6000 NSC 03/01 Q1026
LFOJ - Orléans
Mise à jour: 02-03-2021 02:00
Partiellement nuageux  
Partiellement nuageux  
   Vent: NE 9.3 km/h
Vent: NE 9.3 km/h
Température: 3°C
éolien: 1°C
Point de rosée: 1°C
Humidité: 87%
Pression atmosphérique: 1026 hPa
Nuages: Partiellement nuageux
Visibilité: 6 km
Nébulosité: Partiellement nuageux
LFOJ 020100Z AUTO 05005KT 6000 NSC 03/01 Q1026
LFQB - Sens
Mise à jour: 02-03-2021 02:00
Partiellement nuageux  
Partiellement nuageux  
   Vent: Est 5.6 km/h
Vent: Est 5.6 km/h
Température: 2°C
éolien: 1°C
Point de rosée: 1°C
Humidité: 93%
Pression atmosphérique: 1028 hPa
Nuages: Partiellement nuageux
Visibilité: 7 km
Nébulosité: Partiellement nuageux
LFQB 020100Z AUTO 10003KT 7000 NSC 02/01 Q1028
LFQB - Auxerre
Mise à jour: 02-03-2021 02:00
Partiellement nuageux  
Partiellement nuageux  
   Vent: Est 5.6 km/h
Vent: Est 5.6 km/h
Température: 2°C
éolien: 1°C
Point de rosée: 1°C
Humidité: 93%
Pression atmosphérique: 1028 hPa
Nuages: Partiellement nuageux
Visibilité: 7 km
Nébulosité: Partiellement nuageux
LFQB 020100Z AUTO 10003KT 7000 NSC 02/01 Q1028
LFPO - Paris
Mise à jour: 02-03-2021 02:00
Ciel dégagé  
Ciel dégagé  
   Vent: NNO 3.7 km/h
Vent: NNO 3.7 km/h
Température: 4°C
Point de rosée: 1°C
Humidité: 81%
Pression atmosphérique: 1027 hPa
Visibilité: More than 10 km
Nébulosité: Ciel dégagé
LFPO 020100Z 34002KT CAVOK 04/01 Q1027 NOSIG
LFLX - Bourges
Mise à jour: 02-03-2021 02:00
Ciel dégagé  
Ciel dégagé  
   Vent: NE 5.6 km/h
Vent: NE 5.6 km/h
Température: 6°C
éolien: 5°C
Point de rosée: 3°C
Humidité: 81%
Pression atmosphérique: 1026 hPa
Visibilité: More than 10 km
Nébulosité: Ciel dégagé
LFLX 020100Z AUTO 05003KT CAVOK 06/03 Q1026 NOSIG

Original script by  Saratoga-weather.org Adapted for the template by  Weerstation Leuven